This is the latest recevied weather packets stored in our database for station/object DO1BDB-12. If no packets are shown the sender has not sent any weather packets the latest 10 day(s).
| Time | Temp. | Humidity | Pressure | Rain* | Wind** | Luminosity | Snow |
|---|---|---|---|---|---|---|---|
| 1788083958 | 21.67° C | 68% | 100.8 hPa | - | - | - | - |
| 1788083892 | 21.67° C | 67% | 100.8 hPa | - | - | - | - |
| 1788083827 | 22.22° C | 67% | 100.8 hPa | - | - | - | - |
| 1788083761 | 22.78° C | 65% | 100.8 hPa | - | - | - | - |
| 1788083695 | 22.78° C | 65% | 100.8 hPa | - | - | - | - |
| 1788083629 | 22.78° C | 65% | 100.8 hPa | - | - | - | - |
| 1788083563 | 23.33° C | 62% | 100.8 hPa | - | - | - | - |
| 1788083497 | 23.33° C | 64% | 100.8 hPa | - | - | - | - |
| 1788083432 | 23.89° C | 63% | 100.8 hPa | - | - | - | - |
| 1788083366 | 23.89° C | 64% | 100.8 hPa | - | - | - | - |
| 1788083300 | 23.33° C | 65% | 100.8 hPa | - | - | - | - |
| 1788083234 | 23.33° C | 63% | 100.8 hPa | - | - | - | - |
| 1788083168 | 22.78° C | 66% | 100.8 hPa | - | - | - | - |
| 1788083102 | 22.78° C | 67% | 100.8 hPa | - | - | - | - |
| 1788083036 | 21.11° C | 71% | 100.8 hPa | - | - | - | - |
| 1788082971 | 21.11° C | 71% | 100.8 hPa | - | - | - | - |
| 1788082905 | 21.11° C | 70% | 100.8 hPa | - | - | - | - |
| 1788082839 | 21.11° C | 72% | 100.8 hPa | - | - | - | - |
| 1788082773 | 21.11° C | 72% | 100.8 hPa | - | - | - | - |
| 1788082707 | 21.11° C | 70% | 100.8 hPa | - | - | - | - |
| 1788082641 | 21.67° C | 68% | 100.8 hPa | - | - | - | - |
| 1788082576 | 22.22° C | 67% | 100.8 hPa | - | - | - | - |
| 1788082510 | 22.22° C | 66% | 100.8 hPa | - | - | - | - |
| 1788082444 | 22.22° C | 66% | 100.8 hPa | - | - | - | - |
| 1788082378 | 22.22° C | 66% | 100.7 hPa | - | - | - | - |
* Rain since midnight (hover to see other rain measurements)
** Current wind speed in m/s (hover to see current wind gust speed)